createdAt,value
2018-03-06T00:00:47.811Z,0.50
2018-03-06T00:03:15.733Z,0.57
2018-03-06T00:05:43.234Z,0.60
2018-03-06T00:08:10.875Z,0.55
2018-03-06T00:10:38.371Z,0.59
2018-03-06T00:13:05.904Z,0.62
2018-03-06T00:15:33.430Z,0.63
2018-03-06T00:18:00.956Z,0.70
2018-03-06T00:20:28.637Z,0.66
2018-03-06T00:22:56.150Z,0.73
2018-03-06T00:25:23.656Z,0.71
2018-03-06T00:27:51.403Z,0.77
2018-03-06T00:30:18.914Z,0.75
2018-03-06T00:32:46.399Z,0.73
2018-03-06T00:35:13.919Z,0.75
2018-03-06T00:37:41.462Z,0.73
2018-03-06T00:40:08.961Z,0.73
2018-03-06T00:42:36.518Z,0.69
2018-03-06T00:45:04.049Z,0.70
2018-03-06T00:47:31.627Z,0.71
2018-03-06T00:49:59.169Z,0.70
2018-03-06T00:52:26.763Z,0.70
2018-03-06T00:54:54.267Z,0.71
2018-03-06T00:57:21.766Z,0.71
2018-03-06T00:59:49.262Z,0.78
2018-03-06T01:02:16.911Z,0.73
2018-03-06T01:04:44.429Z,0.68
2018-03-06T01:07:11.934Z,0.75
2018-03-06T01:09:39.487Z,0.78
2018-03-06T01:12:06.994Z,0.76
2018-03-06T01:14:34.791Z,0.70
2018-03-06T01:17:02.321Z,0.73
2018-03-06T01:19:29.830Z,0.80
2018-03-06T01:21:57.353Z,0.75
2018-03-06T01:24:25.194Z,0.87
2018-03-06T01:26:52.714Z,0.87
2018-03-06T01:29:20.212Z,0.81
2018-03-06T01:31:48.348Z,0.82
2018-03-06T01:34:15.915Z,0.86
2018-03-06T01:36:43.418Z,0.79
2018-03-06T01:39:10.959Z,0.81
2018-03-06T01:41:38.539Z,0.80
2018-03-06T01:44:06.070Z,0.84
2018-03-06T01:46:33.570Z,0.81
2018-03-06T01:49:01.062Z,0.81
2018-03-06T01:51:28.596Z,0.78
2018-03-06T01:53:56.117Z,0.77
2018-03-06T01:56:23.624Z,0.71
2018-03-06T01:58:51.135Z,0.79
2018-03-06T02:01:18.625Z,0.81
2018-03-06T02:03:46.784Z,0.88
2018-03-06T02:06:14.290Z,0.80
2018-03-06T02:08:41.842Z,0.84
2018-03-06T02:11:10.355Z,0.80
2018-03-06T02:13:37.872Z,0.77
2018-03-06T02:16:05.376Z,0.82
2018-03-06T02:18:33.003Z,0.90
2018-03-06T02:21:01.742Z,0.88
2018-03-06T02:23:29.247Z,0.89
2018-03-06T02:25:56.947Z,0.84
2018-03-06T02:28:24.438Z,0.90
2018-03-06T02:30:52.079Z,0.93
2018-03-06T02:33:19.571Z,0.93
2018-03-06T02:35:47.080Z,0.91
2018-03-06T02:38:14.779Z,0.88
2018-03-06T02:40:42.339Z,0.98
2018-03-06T02:43:09.848Z,0.93
2018-03-06T02:45:37.347Z,1.01
2018-03-06T02:48:08.295Z,0.88
2018-03-06T02:50:35.814Z,0.96
2018-03-06T02:53:03.303Z,0.92
2018-03-06T02:55:30.811Z,0.87
2018-03-06T02:57:58.595Z,0.88
2018-03-06T03:00:26.283Z,0.83
2018-03-06T03:02:53.866Z,0.88
2018-03-06T03:05:21.383Z,0.89
2018-03-06T03:07:48.863Z,0.95
2018-03-06T03:10:16.389Z,0.88
2018-03-06T03:12:44.046Z,0.93
2018-03-06T03:15:11.652Z,0.96
2018-03-06T03:17:39.147Z,0.93
2018-03-06T03:20:06.636Z,0.93
2018-03-06T03:22:34.141Z,0.85
2018-03-06T03:25:01.655Z,0.88
2018-03-06T03:27:29.150Z,0.83
2018-03-06T03:29:56.655Z,0.85
2018-03-06T03:32:24.163Z,0.88
2018-03-06T03:34:51.679Z,0.85
2018-03-06T03:37:19.175Z,0.79
2018-03-06T03:39:46.716Z,0.84
2018-03-06T03:42:14.234Z,0.84
2018-03-06T03:44:41.715Z,0.83
2018-03-06T03:47:09.218Z,0.80
2018-03-06T03:49:36.752Z,0.84
2018-03-06T03:52:04.252Z,0.83
2018-03-06T03:54:31.846Z,0.88
2018-03-06T03:56:59.352Z,0.93
2018-03-06T03:59:26.860Z,0.98
2018-03-06T04:01:54.372Z,1.04
2018-03-06T04:04:21.884Z,0.93
2018-03-06T04:06:49.471Z,0.94
2018-03-06T04:09:17.001Z,0.95
2018-03-06T04:11:45.552Z,0.95
2018-03-06T04:14:13.043Z,0.93
2018-03-06T04:16:40.531Z,0.90
2018-03-06T04:19:08.020Z,0.97
2018-03-06T04:21:35.506Z,0.95
2018-03-06T04:24:02.996Z,0.93
2018-03-06T04:26:30.826Z,0.91
2018-03-06T04:28:58.308Z,0.91
2018-03-06T04:31:25.803Z,0.92
2018-03-06T04:33:53.296Z,0.97
2018-03-06T04:36:20.866Z,0.90
2018-03-06T04:38:48.358Z,0.86
2018-03-06T04:41:15.846Z,0.91
2018-03-06T04:43:43.312Z,0.87
2018-03-06T04:46:10.863Z,0.96
2018-03-06T04:48:38.351Z,1.04
2018-03-06T04:51:05.832Z,1.00
2018-03-06T04:53:33.340Z,1.03
2018-03-06T04:56:00.807Z,1.06
2018-03-06T04:58:28.374Z,1.00
2018-03-06T05:00:55.890Z,0.95
2018-03-06T05:03:23.366Z,1.02
2018-03-06T05:05:50.842Z,0.98
2018-03-06T05:08:18.427Z,0.96
2018-03-06T05:10:45.901Z,0.91
2018-03-06T05:13:13.375Z,0.89
2018-03-06T05:15:40.853Z,0.93
2018-03-06T05:18:08.394Z,0.97
2018-03-06T05:20:35.873Z,1.00
2018-03-06T05:23:03.347Z,1.12
2018-03-06T05:25:30.840Z,1.09
2018-03-06T05:27:58.319Z,1.02
2018-03-06T05:30:25.959Z,1.07
2018-03-06T05:32:53.434Z,1.00
2018-03-06T05:35:20.911Z,1.06
2018-03-06T05:37:48.763Z,1.02
2018-03-06T05:40:16.313Z,1.09
2018-03-06T05:42:44.060Z,1.12
2018-03-06T05:45:11.580Z,1.19
2018-03-06T05:47:39.071Z,1.11
2018-03-06T05:50:07.441Z,1.14
2018-03-06T05:52:34.997Z,1.26
2018-03-06T05:55:02.498Z,1.23
2018-03-06T05:57:29.971Z,1.26
2018-03-06T05:59:57.462Z,1.28
2018-03-06T06:02:24.944Z,1.31
2018-03-06T06:04:52.467Z,1.27
2018-03-06T06:07:19.950Z,1.26
2018-03-06T06:09:47.448Z,1.27
2018-03-06T06:12:14.931Z,1.23
2018-03-06T06:14:42.473Z,1.26
2018-03-06T06:17:09.927Z,1.21
2018-03-06T06:19:37.410Z,1.23
2018-03-06T06:22:05.004Z,1.25
2018-03-06T06:24:32.504Z,1.36
2018-03-06T06:27:00.019Z,1.27
2018-03-06T06:29:28.247Z,1.19
2018-03-06T06:31:55.751Z,1.17
2018-03-06T06:34:23.210Z,1.19
2018-03-06T06:36:50.697Z,1.29
2018-03-06T06:39:18.199Z,1.25
2018-03-06T06:41:45.666Z,1.24
2018-03-06T06:44:13.151Z,1.28
2018-03-06T06:46:40.690Z,1.19
2018-03-06T06:49:08.170Z,1.25
2018-03-06T06:51:35.645Z,1.36
2018-03-06T06:54:03.157Z,1.41
2018-03-06T06:56:30.642Z,1.38
2018-03-06T06:58:58.117Z,1.39
2018-03-06T07:01:25.594Z,1.31
2018-03-06T07:03:53.063Z,1.39
2018-03-06T07:06:20.531Z,1.55
2018-03-06T07:08:48.008Z,1.59
2018-03-06T07:11:15.468Z,1.56
2018-03-06T07:13:43.567Z,1.61
2018-03-06T07:16:11.048Z,1.71
2018-03-06T07:18:38.498Z,1.78
2018-03-06T07:21:06.091Z,1.76
2018-03-06T07:23:33.576Z,1.82
2018-03-06T07:26:01.032Z,1.89
2018-03-06T07:28:28.578Z,1.90
2018-03-06T07:30:56.074Z,1.89
2018-03-06T07:33:23.538Z,2.00
2018-03-06T07:35:51.046Z,1.94
2018-03-06T07:38:18.889Z,2.08
2018-03-06T07:40:46.360Z,2.13
2018-03-06T07:43:13.850Z,2.12
2018-03-06T07:45:41.660Z,2.27
2018-03-06T07:48:09.119Z,2.24
2018-03-06T07:50:36.579Z,2.33
2018-03-06T07:53:04.030Z,2.45
2018-03-06T07:55:31.532Z,2.49
2018-03-06T07:57:59.032Z,2.54
2018-03-06T08:00:26.582Z,2.46
2018-03-06T08:02:54.044Z,2.51
2018-03-06T08:05:21.524Z,2.60
2018-03-06T08:07:48.976Z,2.51
2018-03-06T08:10:17.190Z,2.48
2018-03-06T08:12:44.966Z,2.56
2018-03-06T08:15:12.496Z,2.59
2018-03-06T08:17:41.367Z,2.45
2018-03-06T08:20:08.858Z,2.55
2018-03-06T08:22:36.315Z,2.65
2018-03-06T08:25:03.770Z,2.60
2018-03-06T08:27:31.222Z,2.61
2018-03-06T08:29:58.701Z,2.61
2018-03-06T08:32:26.170Z,2.69
2018-03-06T08:34:53.611Z,2.92
2018-03-06T08:37:21.079Z,3.01
2018-03-06T08:39:48.560Z,3.16
2018-03-06T08:42:16.679Z,3.29
2018-03-06T08:44:44.394Z,3.29
2018-03-06T08:47:11.867Z,3.21
2018-03-06T08:49:39.328Z,3.23
2018-03-06T08:52:06.802Z,3.20
2018-03-06T08:54:34.276Z,3.08
2018-03-06T08:57:01.735Z,3.14
2018-03-06T08:59:29.228Z,3.16
2018-03-06T09:01:56.679Z,3.26
2018-03-06T09:04:24.133Z,3.31
2018-03-06T09:06:51.615Z,3.38
2018-03-06T09:09:19.092Z,3.52
2018-03-06T09:11:46.608Z,3.45
2018-03-06T09:14:14.120Z,3.39
2018-03-06T09:16:41.577Z,3.43
2018-03-06T09:19:09.019Z,3.40
2018-03-06T09:21:36.535Z,3.41
2018-03-06T09:24:04.000Z,3.46
2018-03-06T09:26:31.457Z,3.53
2018-03-06T09:28:58.929Z,3.61
2018-03-06T09:31:26.410Z,3.82
2018-03-06T09:33:53.882Z,4.09
2018-03-06T09:36:21.366Z,4.55
2018-03-06T09:38:48.829Z,4.81
2018-03-06T09:41:16.297Z,4.90
2018-03-06T09:43:43.759Z,5.12
2018-03-06T09:46:11.220Z,5.23
2018-03-06T09:48:38.795Z,5.30
2018-03-06T09:51:06.259Z,5.52
2018-03-06T09:53:34.327Z,5.53
2018-03-06T09:56:01.802Z,5.44
2018-03-06T09:58:29.277Z,5.46
2018-03-06T10:00:56.721Z,5.54
2018-03-06T10:03:24.175Z,5.69
2018-03-06T10:05:51.635Z,5.69
2018-03-06T10:08:19.099Z,5.75
2018-03-06T10:10:46.583Z,5.67
2018-03-06T10:13:14.056Z,5.81
2018-03-06T10:15:41.501Z,5.57
2018-03-06T10:18:08.961Z,5.56
2018-03-06T10:20:36.422Z,5.58
2018-03-06T10:23:03.863Z,5.76
2018-03-06T10:25:31.340Z,6.05
2018-03-06T10:27:58.859Z,6.28
2018-03-06T10:30:26.412Z,6.31
2018-03-06T10:32:53.870Z,6.14
2018-03-06T10:35:21.324Z,6.13
2018-03-06T10:37:49.532Z,6.13
2018-03-06T10:40:17.012Z,6.42
2018-03-06T10:42:44.458Z,6.49
2018-03-06T10:45:11.959Z,6.68
2018-03-06T10:47:39.410Z,6.67
2018-03-06T10:50:06.910Z,6.88
2018-03-06T10:52:34.391Z,7.08
2018-03-06T10:55:01.842Z,7.11
2018-03-06T10:57:29.320Z,6.60
2018-03-06T10:59:56.793Z,6.41
2018-03-06T11:02:29.897Z,6.15
2018-03-06T11:04:57.389Z,6.11
2018-03-06T11:07:24.864Z,6.04
2018-03-06T11:09:52.335Z,5.67
2018-03-06T11:12:19.791Z,5.42
2018-03-06T11:14:48.755Z,5.10
2018-03-06T11:17:16.214Z,4.90
2018-03-06T11:19:43.708Z,5.01
2018-03-06T11:22:11.167Z,5.19
2018-03-06T11:24:38.821Z,5.11
2018-03-06T11:27:06.283Z,4.96
2018-03-06T11:29:33.776Z,4.78
2018-03-06T11:32:01.248Z,4.40
2018-03-06T11:34:28.703Z,4.20
2018-03-06T11:36:56.188Z,4.34
2018-03-06T11:39:23.643Z,4.41
2018-03-06T11:41:51.091Z,4.70
2018-03-06T11:44:18.608Z,4.79
2018-03-06T11:46:46.073Z,4.88
2018-03-06T11:49:13.532Z,4.71
2018-03-06T11:51:40.996Z,4.52
2018-03-06T11:54:08.471Z,4.32
2018-03-06T11:56:35.943Z,4.42
2018-03-06T11:59:03.406Z,4.30
2018-03-06T12:01:30.859Z,4.45
2018-03-06T12:03:58.342Z,4.51
2018-03-06T12:06:25.940Z,4.31
2018-03-06T12:08:53.676Z,4.25
2018-03-06T12:11:21.181Z,4.18
2018-03-06T12:13:48.663Z,4.15
2018-03-06T12:16:16.174Z,4.20
2018-03-06T12:18:44.356Z,4.17
2018-03-06T12:21:11.865Z,4.09
2018-03-06T12:23:39.335Z,4.03
2018-03-06T12:26:06.823Z,3.90
2018-03-06T12:28:34.280Z,3.91
2018-03-06T12:31:01.780Z,3.85
2018-03-06T12:33:29.323Z,3.68
2018-03-06T12:35:56.783Z,3.60
2018-03-06T12:38:24.287Z,3.65
2018-03-06T12:40:51.812Z,3.61
2018-03-06T12:43:19.256Z,3.65
2018-03-06T12:45:46.713Z,3.74
2018-03-06T12:48:14.162Z,3.75
2018-03-06T12:50:41.634Z,3.75
2018-03-06T12:53:09.110Z,3.78
2018-03-06T12:55:36.546Z,3.75
2018-03-06T12:58:04.035Z,3.68
2018-03-06T13:00:31.538Z,3.64
2018-03-06T13:02:58.991Z,3.51
2018-03-06T13:05:26.450Z,3.63
2018-03-06T13:07:53.887Z,3.53
2018-03-06T13:10:21.344Z,3.61
2018-03-06T13:12:48.799Z,3.71
2018-03-06T13:15:16.401Z,3.84
2018-03-06T13:17:43.872Z,3.81
2018-03-06T13:20:11.347Z,3.72
2018-03-06T13:22:38.811Z,3.82
2018-03-06T13:25:06.425Z,3.82
2018-03-06T13:27:33.875Z,3.73
2018-03-06T13:30:01.344Z,3.78
2018-03-06T13:32:28.815Z,3.88
2018-03-06T13:34:56.281Z,3.92
2018-03-06T13:37:23.761Z,3.97
2018-03-06T13:39:51.752Z,3.95
2018-03-06T13:42:19.215Z,3.89
2018-03-06T13:44:46.707Z,3.88
2018-03-06T13:47:14.152Z,3.88
2018-03-06T13:49:41.625Z,3.81
2018-03-06T13:52:09.091Z,3.82
2018-03-06T13:54:36.603Z,3.80
2018-03-06T13:57:04.057Z,3.93
2018-03-06T13:59:31.520Z,4.01
2018-03-06T14:01:59.004Z,3.93
2018-03-06T14:04:26.469Z,3.99
2018-03-06T14:06:53.920Z,4.01
2018-03-06T14:09:21.438Z,3.96
2018-03-06T14:11:49.090Z,3.94
2018-03-06T14:14:16.542Z,4.00
2018-03-06T14:16:44.001Z,4.08
2018-03-06T14:19:11.452Z,4.06
2018-03-06T14:21:38.946Z,4.10
2018-03-06T14:24:06.427Z,3.98
2018-03-06T14:26:33.940Z,4.02
2018-03-06T14:29:01.421Z,4.01
2018-03-06T14:31:28.879Z,3.97
2018-03-06T14:33:56.347Z,3.87
2018-03-06T14:36:23.930Z,4.01
2018-03-06T14:38:51.419Z,3.95
2018-03-06T14:41:18.884Z,3.98
2018-03-06T14:43:46.348Z,3.87
2018-03-06T14:46:13.956Z,3.79
2018-03-06T14:48:41.781Z,3.74
2018-03-06T14:51:09.283Z,3.62
2018-03-06T14:53:36.720Z,3.62
2018-03-06T14:56:04.176Z,3.68
2018-03-06T14:58:31.627Z,3.66
2018-03-06T15:00:59.120Z,3.66
2018-03-06T15:03:26.590Z,3.70
2018-03-06T15:05:54.036Z,3.72
2018-03-06T15:08:21.515Z,3.82
2018-03-06T15:10:49.020Z,3.90
2018-03-06T15:13:16.540Z,3.95
2018-03-06T15:15:44.032Z,3.91
2018-03-06T15:18:11.490Z,3.99
2018-03-06T15:20:38.947Z,3.99
2018-03-06T15:23:06.399Z,3.96
2018-03-06T15:25:33.869Z,3.99
2018-03-06T15:28:01.383Z,3.99
2018-03-06T15:30:28.880Z,4.06
2018-03-06T15:32:56.551Z,4.00
2018-03-06T15:35:23.998Z,3.89
2018-03-06T15:37:51.474Z,3.73
2018-03-06T15:40:18.943Z,3.74
2018-03-06T15:42:46.425Z,3.75
2018-03-06T15:45:13.958Z,3.71
2018-03-06T15:47:41.419Z,3.75
2018-03-06T15:50:08.882Z,3.71
2018-03-06T15:52:36.334Z,3.67
2018-03-06T15:55:03.823Z,3.72
2018-03-06T15:57:31.297Z,3.74
2018-03-06T15:59:58.817Z,3.73
2018-03-06T16:02:26.286Z,3.71
2018-03-06T16:04:53.744Z,3.67
2018-03-06T16:07:21.231Z,3.68
2018-03-06T16:09:48.733Z,3.73
2018-03-06T16:12:16.193Z,3.66
2018-03-06T16:14:43.666Z,3.65
2018-03-06T16:17:11.142Z,3.63
2018-03-06T16:19:38.654Z,3.56
2018-03-06T16:22:06.115Z,3.50
2018-03-06T16:24:33.642Z,3.59
2018-03-06T16:27:01.139Z,3.56
2018-03-06T16:29:28.617Z,3.45
2018-03-06T16:31:56.117Z,3.36
2018-03-06T16:34:23.606Z,3.34
2018-03-06T16:36:51.060Z,3.27
2018-03-06T16:39:18.543Z,3.19
2018-03-06T16:41:46.055Z,3.13
2018-03-06T16:44:13.526Z,3.13
2018-03-06T16:46:41.091Z,3.10
2018-03-06T16:49:08.554Z,3.03
2018-03-06T16:51:37.012Z,3.02
2018-03-06T16:54:04.480Z,2.94
2018-03-06T16:56:32.202Z,2.94
2018-03-06T16:58:59.740Z,2.88
2018-03-06T17:01:27.195Z,2.85
2018-03-06T17:03:54.663Z,2.85
2018-03-06T17:06:22.145Z,2.77
2018-03-06T17:08:49.644Z,2.73
2018-03-06T17:11:17.309Z,2.77
2018-03-06T17:13:44.797Z,2.67
2018-03-06T17:16:12.263Z,2.70
2018-03-06T17:18:39.725Z,2.70
2018-03-06T17:21:07.276Z,2.63
2018-03-06T17:23:34.812Z,2.58
2018-03-06T17:26:02.326Z,2.55
2018-03-06T17:28:29.863Z,2.51
2018-03-06T17:30:57.372Z,2.51
2018-03-06T17:33:24.854Z,2.54
2018-03-06T17:35:52.371Z,2.49
2018-03-06T17:38:19.857Z,2.51
2018-03-06T17:40:47.340Z,2.53
2018-03-06T17:43:14.861Z,2.48
2018-03-06T17:45:42.361Z,2.40
2018-03-06T17:48:09.819Z,2.37
2018-03-06T17:50:38.450Z,2.36
2018-03-06T17:53:07.192Z,2.39
2018-03-06T17:55:34.685Z,2.37
2018-03-06T17:58:02.158Z,2.35
2018-03-06T18:00:29.617Z,2.28
2018-03-06T18:02:57.821Z,2.26
2018-03-06T18:05:25.398Z,2.26
2018-03-06T18:07:53.514Z,2.22
2018-03-06T18:10:21.024Z,2.19
2018-03-06T18:12:48.565Z,2.21
2018-03-06T18:15:16.311Z,2.22
2018-03-06T18:17:43.778Z,2.23
2018-03-06T18:20:11.240Z,2.25
2018-03-06T18:22:38.840Z,2.23
2018-03-06T18:25:06.310Z,2.24
2018-03-06T18:27:33.962Z,2.23
2018-03-06T18:30:02.237Z,2.22
2018-03-06T18:32:29.723Z,2.25
2018-03-06T18:34:57.224Z,2.28
2018-03-06T18:37:24.808Z,2.29
2018-03-06T18:39:52.309Z,2.29
2018-03-06T18:42:20.606Z,2.25
2018-03-06T18:44:48.064Z,2.19
2018-03-06T18:47:15.539Z,2.17
2018-03-06T18:49:54.807Z,2.13
2018-03-06T18:52:22.260Z,2.06
2018-03-06T18:54:49.703Z,1.97
2018-03-06T18:57:17.671Z,1.88
2018-03-06T18:59:45.146Z,1.79
2018-03-06T19:02:24.485Z,1.69
2018-03-06T19:05:03.663Z,1.60
2018-03-06T19:07:31.159Z,1.63
2018-03-06T19:09:58.616Z,1.52
2018-03-06T19:12:26.382Z,1.37
2018-03-06T19:14:53.937Z,1.27
2018-03-06T19:17:21.395Z,1.16
2018-03-06T19:19:48.946Z,1.05
2018-03-06T19:22:16.487Z,0.98
2018-03-06T19:24:43.947Z,0.93
2018-03-06T19:36:54.177Z,1.29
2018-03-06T19:39:22.021Z,1.32
2018-03-06T19:41:50.349Z,1.28
2018-03-06T19:44:17.972Z,1.29
2018-03-06T19:46:45.452Z,1.26
2018-03-06T19:49:15.727Z,1.19
2018-03-06T19:51:43.442Z,1.15
2018-03-06T19:54:20.367Z,1.19
2018-03-06T19:56:49.105Z,1.10
2018-03-06T19:59:16.717Z,0.98
2018-03-06T20:01:45.780Z,0.96
2018-03-06T20:04:13.445Z,0.88
2018-03-06T20:06:41.416Z,0.88
2018-03-06T20:09:09.401Z,0.91
2018-03-06T20:11:37.708Z,0.87
2018-03-06T20:14:05.391Z,0.73
2018-03-06T20:16:33.176Z,0.68
2018-03-06T20:19:07.232Z,0.68
2018-03-06T20:21:34.844Z,0.66
2018-03-06T20:24:07.867Z,0.68
2018-03-06T20:26:37.704Z,0.60
2018-03-06T20:29:09.466Z,0.55
2018-03-06T20:31:44.006Z,0.47
2018-03-06T20:34:11.875Z,0.48
2018-03-06T20:36:39.528Z,0.59
2018-03-06T20:39:12.806Z,0.59
2018-03-06T20:41:40.467Z,0.51
2018-03-06T20:51:58.032Z,0.36
2018-03-06T20:54:31.096Z,0.28
2018-03-06T20:59:32.654Z,0.11
2018-03-06T21:02:00.276Z,0.08
2018-03-06T21:04:27.877Z,0.09
2018-03-06T21:07:02.813Z,0.11
2018-03-06T21:24:51.563Z,0.04
2018-03-06T21:27:20.404Z,0.03
2018-03-06T21:29:48.034Z,0.04
2018-03-06T21:32:18.029Z,0.10
2018-03-06T21:39:57.363Z,0.45
2018-03-06T21:42:25.108Z,0.48
2018-03-06T21:45:03.072Z,0.51
2018-03-06T21:47:31.623Z,0.64
2018-03-06T21:49:59.773Z,0.71
2018-03-06T21:52:27.511Z,0.77
2018-03-06T21:54:55.971Z,0.86
2018-03-06T21:57:24.157Z,0.87
2018-03-06T21:59:51.640Z,0.91
2018-03-06T22:02:19.131Z,0.88
2018-03-06T22:04:47.000Z,0.93
2018-03-06T22:07:14.938Z,0.91
2018-03-06T22:09:42.538Z,0.91
2018-03-06T22:12:10.046Z,0.94
2018-03-06T22:14:37.560Z,1.08
2018-03-06T22:17:05.856Z,1.03
2018-03-06T22:19:34.178Z,1.06
2018-03-06T22:22:01.689Z,1.04
2018-03-06T22:24:30.381Z,1.06
2018-03-06T22:26:57.892Z,1.04
2018-03-06T22:29:25.396Z,1.02
2018-03-06T22:31:53.290Z,1.03
2018-03-06T22:34:20.855Z,1.07
2018-03-06T22:36:48.621Z,1.08
2018-03-06T22:39:17.653Z,1.13
2018-03-06T22:41:45.115Z,1.16
2018-03-06T22:44:12.697Z,1.12
2018-03-06T22:46:40.243Z,1.12
2018-03-06T22:49:07.751Z,1.12
2018-03-06T22:51:35.237Z,1.14
2018-03-06T22:54:02.736Z,1.14
2018-03-06T22:56:30.774Z,1.14
2018-03-06T22:58:58.288Z,1.17
2018-03-06T23:01:25.763Z,1.22
2018-03-06T23:03:54.252Z,1.25
2018-03-06T23:06:22.518Z,1.24
2018-03-06T23:08:50.393Z,1.30
2018-03-06T23:11:17.976Z,1.36
2018-03-06T23:13:45.485Z,1.36
2018-03-06T23:16:13.502Z,1.39
2018-03-06T23:18:41.072Z,1.38
2018-03-06T23:21:08.551Z,1.37
2018-03-06T23:23:36.029Z,1.42
2018-03-06T23:26:03.559Z,1.40
2018-03-06T23:28:31.306Z,1.45
2018-03-06T23:30:58.818Z,1.46
2018-03-06T23:33:26.405Z,1.48
2018-03-06T23:35:53.894Z,1.47
2018-03-06T23:38:21.406Z,1.50
2018-03-06T23:40:49.075Z,1.49
2018-03-06T23:43:16.613Z,1.54
2018-03-06T23:45:44.091Z,1.55
2018-03-06T23:48:11.584Z,1.51
2018-03-06T23:50:41.140Z,1.43
2018-03-06T23:53:08.659Z,1.43
2018-03-06T23:55:36.099Z,1.35
2018-03-06T23:58:03.580Z,1.32
